createdAt,value
2022-08-04T00:02:53.607Z,1.35
2022-08-04T00:05:30.973Z,1.80
2022-08-04T00:08:20.038Z,1.48
2022-08-04T00:10:54.328Z,1.42
2022-08-04T00:13:23.526Z,1.60
2022-08-04T00:16:02.104Z,1.25
2022-08-04T00:18:34.925Z,1.50
2022-08-04T00:21:06.094Z,1.62
2022-08-04T00:24:10.916Z,1.55
2022-08-04T00:26:23.850Z,1.30
2022-08-04T00:28:54.117Z,1.50
2022-08-04T00:31:53.581Z,1.70
2022-08-04T00:34:14.079Z,1.52
2022-08-04T00:36:44.135Z,1.70
2022-08-04T00:39:13.908Z,1.42
2022-08-04T00:42:03.464Z,1.40
2022-08-04T00:45:02.225Z,1.77
2022-08-04T00:47:42.458Z,1.30
2022-08-04T00:50:11.700Z,1.45
2022-08-04T00:52:48.711Z,1.23
2022-08-04T00:55:36.678Z,1.40
2022-08-04T00:58:14.160Z,1.55
2022-08-04T01:01:20.807Z,1.42
2022-08-04T01:03:57.707Z,2.00
2022-08-04T01:06:56.429Z,1.40
2022-08-04T01:10:03.197Z,1.58
2022-08-04T01:12:49.595Z,1.87
2022-08-04T01:15:23.713Z,1.87
2022-08-04T01:17:55.610Z,1.95
2022-08-04T01:20:25.790Z,1.80
2022-08-04T01:22:59.327Z,1.80
2022-08-04T01:25:40.274Z,2.00
2022-08-04T01:28:28.971Z,1.80
2022-08-04T01:30:58.653Z,2.05
2022-08-04T01:33:29.850Z,2.12
2022-08-04T01:36:05.059Z,1.98
2022-08-04T01:38:42.204Z,2.30
2022-08-04T01:41:12.095Z,2.30
2022-08-04T01:43:44.855Z,1.77
2022-08-04T01:46:17.341Z,1.80
2022-08-04T01:48:47.258Z,1.80
2022-08-04T01:51:14.751Z,1.80
2022-08-04T01:53:44.070Z,2.12
2022-08-04T01:56:12.561Z,1.80
2022-08-04T01:58:40.645Z,1.77
2022-08-04T02:01:10.615Z,1.90
2022-08-04T02:04:18.607Z,1.90
2022-08-04T02:06:58.787Z,1.50
2022-08-04T02:09:35.356Z,1.60
2022-08-04T02:12:31.078Z,1.80
2022-08-04T02:15:10.371Z,1.70
2022-08-04T02:17:43.580Z,2.05
2022-08-04T02:20:16.153Z,2.25
2022-08-04T02:23:05.263Z,1.90
2022-08-04T02:25:38.583Z,2.00
2022-08-04T02:28:35.160Z,2.17
2022-08-04T02:31:25.186Z,2.12
2022-08-04T02:34:03.832Z,2.28
2022-08-04T02:36:35.909Z,2.33
2022-08-04T02:39:05.255Z,2.12
2022-08-04T02:41:34.007Z,2.05
2022-08-04T02:44:03.527Z,2.50
2022-08-04T02:46:32.028Z,2.00
2022-08-04T02:49:03.787Z,2.58
2022-08-04T02:51:36.782Z,2.72
2022-08-04T02:54:06.504Z,2.62
2022-08-04T02:56:35.696Z,2.65
2022-08-04T02:59:11.862Z,2.50
2022-08-04T03:01:57.531Z,2.30
2022-08-04T03:05:00.846Z,2.15
2022-08-04T03:07:51.309Z,2.53
2022-08-04T03:10:42.516Z,2.22
2022-08-04T03:13:25.893Z,2.75
2022-08-04T03:16:35.539Z,2.55
2022-08-04T03:19:27.666Z,2.50
2022-08-04T03:22:59.845Z,2.55
2022-08-04T03:25:56.731Z,2.08
2022-08-04T03:28:51.197Z,2.60
2022-08-04T03:31:24.137Z,2.47
2022-08-04T03:34:09.255Z,2.42
2022-08-04T03:36:41.693Z,2.50
2022-08-04T03:39:31.100Z,2.35
2022-08-04T03:42:26.476Z,2.35
2022-08-04T03:45:24.035Z,2.45
2022-08-04T03:48:19.411Z,2.97
2022-08-04T03:51:32.306Z,2.78
2022-08-04T03:54:05.564Z,2.47
2022-08-04T03:56:57.892Z,3.05
2022-08-04T03:59:41.326Z,2.72
2022-08-04T04:02:35.598Z,2.50
2022-08-04T04:05:15.300Z,2.25
2022-08-04T04:08:12.593Z,2.70
2022-08-04T04:11:19.373Z,2.83
2022-08-04T04:16:59.437Z,3.17
2022-08-04T04:22:35.414Z,2.50
2022-08-04T04:28:44.928Z,2.55
2022-08-04T04:31:21.526Z,2.15
2022-08-04T04:34:46.083Z,2.22
2022-08-04T04:37:49.074Z,2.40
2022-08-04T04:40:32.081Z,2.47
2022-08-04T04:43:11.551Z,2.28
2022-08-04T04:45:49.132Z,2.25
2022-08-04T04:48:26.799Z,1.80
2022-08-04T04:51:16.225Z,2.33
2022-08-04T04:54:02.145Z,1.92
2022-08-04T04:56:47.565Z,2.20
2022-08-04T04:59:17.184Z,1.85
2022-08-04T05:02:00.311Z,1.98
2022-08-04T05:04:38.223Z,2.05
2022-08-04T05:07:50.332Z,2.00
2022-08-04T05:10:29.571Z,2.13
2022-08-04T05:14:38.056Z,1.90
2022-08-04T05:16:38.079Z,2.20
2022-08-04T05:19:36.486Z,2.05
2022-08-04T05:22:14.434Z,2.10
2022-08-04T05:24:45.402Z,2.17
2022-08-04T05:27:17.479Z,1.75
2022-08-04T05:29:57.786Z,1.95
2022-08-04T05:32:28.668Z,2.05
2022-08-04T05:35:00.739Z,1.90
2022-08-04T05:37:30.328Z,1.95
2022-08-04T05:40:02.882Z,1.92
2022-08-04T05:42:32.009Z,1.90
2022-08-04T05:45:00.220Z,1.73
2022-08-04T05:47:28.213Z,2.40
2022-08-04T05:50:01.271Z,1.83
2022-08-04T05:52:31.703Z,2.08
2022-08-04T05:55:00.656Z,1.80
2022-08-04T05:57:28.627Z,1.70
2022-08-04T05:59:59.901Z,1.80
2022-08-04T06:02:28.125Z,1.83
2022-08-04T06:04:56.304Z,1.92
2022-08-04T06:07:23.828Z,1.70
2022-08-04T06:09:51.251Z,1.65
2022-08-04T06:12:22.279Z,1.80
2022-08-04T06:14:52.951Z,1.80
2022-08-04T06:19:57.271Z,1.52
2022-08-04T06:20:20.057Z,1.70
2022-08-04T06:22:54.169Z,1.65
2022-08-04T06:25:25.233Z,1.58
2022-08-04T06:27:53.399Z,1.75
2022-08-04T06:30:21.963Z,1.30
2022-08-04T06:33:04.372Z,1.40
2022-08-04T06:35:33.635Z,1.80
2022-08-04T06:38:02.819Z,1.48
2022-08-04T06:40:33.659Z,1.62
2022-08-04T06:43:03.953Z,1.50
2022-08-04T06:45:34.249Z,1.58
2022-08-04T06:48:02.892Z,1.48
2022-08-04T06:51:29.345Z,1.62
2022-08-04T06:53:18.474Z,1.98
2022-08-04T06:55:46.995Z,1.48
2022-08-04T06:58:15.487Z,1.70
2022-08-04T07:00:44.981Z,1.70
2022-08-04T07:03:12.743Z,1.70
2022-08-04T07:05:40.957Z,1.87
2022-08-04T07:08:11.312Z,1.42
2022-08-04T07:10:39.327Z,1.50
2022-08-04T07:13:07.676Z,2.00
2022-08-04T07:15:36.115Z,1.45
2022-08-04T07:18:05.098Z,1.70
2022-08-04T07:20:35.656Z,1.67
2022-08-04T07:23:04.626Z,1.42
2022-08-04T07:26:11.433Z,1.52
2022-08-04T07:28:22.930Z,1.50
2022-08-04T07:30:50.641Z,1.73
2022-08-04T07:33:18.926Z,1.77
2022-08-04T07:36:10.301Z,1.45
2022-08-04T07:38:48.267Z,1.55
2022-08-04T07:41:39.066Z,1.37
2022-08-04T07:44:07.218Z,1.27
2022-08-04T07:46:36.138Z,1.85
2022-08-04T07:49:05.135Z,1.70
2022-08-04T07:51:33.310Z,1.62
2022-08-04T07:54:03.853Z,1.20
2022-08-04T07:56:32.957Z,1.40
2022-08-04T07:59:01.274Z,1.52
2022-08-04T08:01:29.128Z,1.20
2022-08-04T08:03:58.075Z,1.70
2022-08-04T08:06:33.273Z,1.30
2022-08-04T08:09:14.742Z,1.70
2022-08-04T08:12:36.348Z,1.50
2022-08-04T08:14:31.622Z,1.60
2022-08-04T08:17:04.099Z,1.65
2022-08-04T08:19:33.146Z,1.65
2022-08-04T08:22:01.631Z,1.55
2022-08-04T08:24:30.163Z,1.70
2022-08-04T08:27:00.068Z,1.52
2022-08-04T08:29:29.491Z,1.20
2022-08-04T08:32:01.329Z,1.30
2022-08-04T08:34:30.052Z,1.48
2022-08-04T08:37:15.709Z,1.30
2022-08-04T08:39:54.320Z,1.65
2022-08-04T08:42:36.476Z,1.75
2022-08-04T08:45:28.848Z,1.52
2022-08-04T08:48:43.063Z,1.42
2022-08-04T08:51:11.370Z,1.70
2022-08-04T08:53:57.288Z,1.87
2022-08-04T08:56:46.003Z,1.60
2022-08-04T08:59:20.499Z,1.73
2022-08-04T09:02:00.958Z,1.98
2022-08-04T09:05:02.076Z,1.80
2022-08-04T09:07:52.920Z,1.50
2022-08-04T09:10:41.984Z,1.70
2022-08-04T09:13:46.273Z,1.77
2022-08-04T09:16:38.989Z,1.65
2022-08-04T09:19:22.965Z,1.60
2022-08-04T09:22:20.811Z,1.37
2022-08-04T09:25:19.399Z,1.52
2022-08-04T09:27:56.162Z,1.40
2022-08-04T09:30:33.047Z,1.98
2022-08-04T09:33:22.685Z,1.48
2022-08-04T09:36:27.860Z,1.67
2022-08-04T09:39:20.290Z,1.70
2022-08-04T09:42:02.083Z,1.85
2022-08-04T09:44:56.393Z,1.48
2022-08-04T09:47:41.773Z,1.50
2022-08-04T09:50:35.579Z,1.60
2022-08-04T09:53:11.563Z,1.70
2022-08-04T09:55:53.748Z,1.70
2022-08-04T09:58:30.943Z,1.50
2022-08-04T10:01:05.027Z,1.55
2022-08-04T10:03:35.352Z,1.50
2022-08-04T10:06:44.457Z,1.70
2022-08-04T10:09:34.256Z,1.50
2022-08-04T10:12:17.845Z,1.60
2022-08-04T10:14:56.357Z,1.70
2022-08-04T10:17:52.222Z,1.85
2022-08-04T10:20:51.748Z,1.85
2022-08-04T10:23:56.634Z,1.80
2022-08-04T10:26:33.726Z,1.70
2022-08-04T10:29:14.468Z,1.90
2022-08-04T10:31:54.718Z,1.70
2022-08-04T10:34:26.604Z,1.90
2022-08-04T10:37:09.334Z,1.70
2022-08-04T10:40:11.984Z,1.48
2022-08-04T10:42:49.390Z,1.80
2022-08-04T10:45:25.504Z,1.60
2022-08-04T10:48:01.613Z,1.48
2022-08-04T10:50:29.957Z,1.95
2022-08-04T10:53:09.515Z,1.42
2022-08-04T10:56:07.111Z,1.95
2022-08-04T10:58:48.003Z,1.80
2022-08-04T11:02:02.940Z,2.15
2022-08-04T11:04:33.164Z,1.80
2022-08-04T11:07:00.770Z,2.00
2022-08-04T11:09:29.936Z,2.10
2022-08-04T11:12:19.840Z,2.10
2022-08-04T11:14:56.326Z,2.28
2022-08-04T11:17:35.761Z,2.20
2022-08-04T11:20:41.866Z,1.87
2022-08-04T11:23:12.060Z,2.30
2022-08-04T11:26:01.946Z,2.10
2022-08-04T11:29:03.598Z,2.03
2022-08-04T11:31:35.871Z,2.10
2022-08-04T11:34:25.700Z,2.28
2022-08-04T11:37:18.053Z,2.35
2022-08-04T11:39:50.528Z,2.45
2022-08-04T11:42:33.591Z,2.10
2022-08-04T11:45:10.686Z,2.45
2022-08-04T11:47:39.656Z,2.37
2022-08-04T11:50:15.888Z,2.40
2022-08-04T11:52:44.471Z,2.20
2022-08-04T11:55:15.525Z,2.47
2022-08-04T11:57:44.597Z,2.22
2022-08-04T12:00:13.817Z,2.40
2022-08-04T12:03:00.288Z,2.70
2022-08-04T12:05:36.589Z,2.37
2022-08-04T12:08:33.006Z,2.42
2022-08-04T12:11:16.359Z,2.62
2022-08-04T12:14:05.647Z,2.45
2022-08-04T12:16:43.049Z,3.10
2022-08-04T12:19:21.442Z,2.45
2022-08-04T12:22:04.279Z,2.30
2022-08-04T12:24:40.329Z,2.55
2022-08-04T12:27:15.818Z,2.05
2022-08-04T12:31:00.599Z,2.20
2022-08-04T12:33:01.294Z,2.70
2022-08-04T12:36:11.850Z,2.60
2022-08-04T12:38:47.658Z,2.25
2022-08-04T12:41:19.442Z,2.58
2022-08-04T12:43:47.388Z,2.60
2022-08-04T12:46:33.590Z,2.42
2022-08-04T12:49:03.986Z,2.65
2022-08-04T12:52:08.274Z,2.40
2022-08-04T12:54:33.695Z,2.42
2022-08-04T12:57:02.180Z,2.22
2022-08-04T12:59:29.756Z,2.45
2022-08-04T13:02:09.176Z,2.58
2022-08-04T13:04:42.972Z,2.37
2022-08-04T13:07:36.987Z,2.30
2022-08-04T13:10:13.723Z,2.55
2022-08-04T13:12:55.268Z,2.45
2022-08-04T13:15:24.568Z,2.20
2022-08-04T13:17:57.082Z,2.72
2022-08-04T13:20:30.436Z,2.55
2022-08-04T13:23:10.039Z,2.35
2022-08-04T13:26:44.109Z,2.50
2022-08-04T13:28:35.021Z,2.30
2022-08-04T13:31:06.265Z,2.30
2022-08-04T13:33:39.400Z,2.25
2022-08-04T13:36:08.088Z,2.30
2022-08-04T13:38:40.097Z,2.22
2022-08-04T13:41:08.376Z,2.20
2022-08-04T13:43:48.511Z,2.37
2022-08-04T13:46:34.326Z,2.30
2022-08-04T13:51:58.382Z,2.20
2022-08-04T13:54:35.426Z,2.30
2022-08-04T13:57:19.287Z,2.58
2022-08-04T13:59:49.508Z,2.22
2022-08-04T14:02:39.804Z,2.50
2022-08-04T14:05:30.365Z,2.22
2022-08-04T14:08:18.683Z,2.20
2022-08-04T14:10:54.904Z,2.10
2022-08-04T14:13:42.468Z,2.05
2022-08-04T14:16:21.039Z,2.25
2022-08-04T14:18:58.284Z,2.05
2022-08-04T14:21:25.941Z,2.60
2022-08-04T14:23:55.339Z,2.10
2022-08-04T14:26:33.679Z,2.35
2022-08-04T14:29:28.162Z,2.33
2022-08-04T14:32:10.753Z,2.08
2022-08-04T14:34:45.149Z,2.25
2022-08-04T14:37:20.528Z,2.30
2022-08-04T14:40:17.751Z,1.85
2022-08-04T14:42:54.972Z,2.00
2022-08-04T14:45:54.213Z,2.30
2022-08-04T14:48:23.147Z,2.42
2022-08-04T14:50:51.039Z,2.58
2022-08-04T14:53:20.856Z,1.90
2022-08-04T14:55:51.332Z,2.08
2022-08-04T14:58:36.227Z,1.90
2022-08-04T15:01:10.089Z,2.30
2022-08-04T15:03:48.286Z,2.10
2022-08-04T15:06:26.215Z,2.12
2022-08-04T15:08:56.830Z,2.10
2022-08-04T15:11:24.937Z,2.00
2022-08-04T15:13:53.131Z,1.83
2022-08-04T15:16:22.403Z,2.28
2022-08-04T15:18:51.132Z,2.45
2022-08-04T15:21:22.726Z,2.25
2022-08-04T15:23:50.709Z,2.28
2022-08-04T15:26:29.210Z,2.20
2022-08-04T15:29:00.832Z,2.03
2022-08-04T15:32:04.113Z,2.22
2022-08-04T15:34:16.661Z,2.05
2022-08-04T15:36:56.196Z,2.42
2022-08-04T15:39:36.028Z,2.33
2022-08-04T15:42:21.450Z,2.35
2022-08-04T15:46:35.010Z,2.00
2022-08-04T15:48:23.286Z,2.28
2022-08-04T15:50:57.856Z,2.10
2022-08-04T15:53:28.735Z,2.30
2022-08-04T15:56:23.638Z,1.90
2022-08-04T15:58:57.410Z,2.10
2022-08-04T16:01:25.446Z,2.30
2022-08-04T16:04:00.367Z,2.22
2022-08-04T16:06:29.472Z,1.83
2022-08-04T16:08:59.922Z,1.87
2022-08-04T16:11:32.365Z,2.00
2022-08-04T16:14:01.005Z,2.20
2022-08-04T16:16:29.649Z,3.05
2022-08-04T16:19:06.106Z,2.12
2022-08-04T16:21:35.971Z,2.20
2022-08-04T16:24:17.948Z,2.10
2022-08-04T16:26:56.067Z,2.22
2022-08-04T16:29:23.771Z,1.92
2022-08-04T16:32:13.124Z,2.33
2022-08-04T16:34:54.040Z,2.08
2022-08-04T16:37:34.552Z,2.47
2022-08-04T16:40:23.949Z,2.20
2022-08-04T16:42:51.650Z,2.10
2022-08-04T16:45:19.090Z,2.28
2022-08-04T16:47:49.490Z,2.30
2022-08-04T16:50:22.156Z,1.77
2022-08-04T16:52:54.272Z,2.50
2022-08-04T16:55:24.525Z,2.20
2022-08-04T16:57:53.897Z,2.37
2022-08-04T17:00:41.697Z,2.25
2022-08-04T17:03:11.657Z,2.30
2022-08-04T17:05:40.475Z,2.15
2022-08-04T17:10:56.745Z,2.10
2022-08-04T17:14:03.840Z,2.03
2022-08-04T17:16:25.456Z,2.30
2022-08-04T17:18:54.244Z,2.40
2022-08-04T17:21:28.096Z,2.10
2022-08-04T17:24:14.552Z,1.98
2022-08-04T17:26:54.247Z,1.73
2022-08-04T17:29:43.268Z,2.40
2022-08-04T17:32:21.367Z,2.10
2022-08-04T17:35:00.467Z,2.37
2022-08-04T17:40:14.356Z,2.30
2022-08-04T17:42:46.039Z,2.22
2022-08-04T17:48:08.950Z,2.37
2022-08-04T17:50:43.171Z,2.25
2022-08-04T17:53:12.982Z,2.12
2022-08-04T17:55:46.945Z,2.20
2022-08-04T17:58:22.099Z,2.65
2022-08-04T18:03:51.900Z,2.70
2022-08-04T18:06:23.125Z,2.90
2022-08-04T18:08:59.330Z,2.40
2022-08-04T18:11:52.797Z,2.58
2022-08-04T18:14:28.676Z,2.65
2022-08-04T18:16:56.524Z,2.70
2022-08-04T18:19:24.149Z,2.70
2022-08-04T18:21:59.353Z,3.05
2022-08-04T18:24:35.521Z,3.20
2022-08-04T18:27:23.937Z,3.08
2022-08-04T18:30:34.318Z,3.08
2022-08-04T18:32:56.392Z,3.17
2022-08-04T18:36:31.432Z,3.20
2022-08-04T18:38:22.245Z,3.00
2022-08-04T18:40:53.173Z,2.65
2022-08-04T18:43:28.687Z,2.85
2022-08-04T18:45:59.468Z,2.87
2022-08-04T18:48:36.887Z,2.40
2022-08-04T18:51:10.878Z,2.47
2022-08-04T18:53:55.229Z,2.42
2022-08-04T18:56:31.752Z,2.60
2022-08-04T18:59:01.538Z,2.97
2022-08-04T19:02:09.249Z,2.97
2022-08-04T19:07:24.624Z,2.70
2022-08-04T19:09:57.719Z,3.33
2022-08-04T19:12:28.391Z,3.70
2022-08-04T19:14:58.811Z,3.45
2022-08-04T19:17:52.455Z,3.70
2022-08-04T19:20:25.751Z,3.30
2022-08-04T19:24:27.866Z,3.10
2022-08-04T19:26:02.172Z,3.05
2022-08-04T19:28:34.435Z,2.90
2022-08-04T19:31:04.607Z,3.05
2022-08-04T19:33:59.641Z,2.95
2022-08-04T19:36:20.634Z,3.35
2022-08-04T19:38:57.753Z,3.37
2022-08-04T19:41:26.684Z,3.20
2022-08-04T19:43:54.857Z,3.10
2022-08-04T19:46:24.835Z,3.05
2022-08-04T19:48:59.217Z,3.20
2022-08-04T19:51:32.796Z,3.25
2022-08-04T19:54:02.758Z,2.65
2022-08-04T19:56:40.472Z,2.60
2022-08-04T19:59:11.541Z,3.03
2022-08-04T20:01:44.556Z,2.72
2022-08-04T20:04:14.376Z,2.97
2022-08-04T20:06:42.687Z,2.25
2022-08-04T20:09:26.712Z,2.70
2022-08-04T20:11:58.217Z,3.03
2022-08-04T20:14:32.423Z,2.77
2022-08-04T20:17:02.454Z,3.00
2022-08-04T20:19:30.481Z,3.25
2022-08-04T20:21:58.497Z,2.47
2022-08-04T20:24:37.684Z,3.40
2022-08-04T20:27:15.264Z,3.22
2022-08-04T20:29:49.404Z,3.50
2022-08-04T20:32:19.895Z,2.90
2022-08-04T20:34:52.163Z,2.85
2022-08-04T20:39:58.057Z,2.75
2022-08-04T20:42:27.403Z,2.40
2022-08-04T20:45:01.280Z,2.45
2022-08-04T20:47:33.692Z,2.58
2022-08-04T20:50:05.565Z,2.83
2022-08-04T20:52:37.649Z,2.30
2022-08-04T20:55:06.984Z,2.40
2022-08-04T20:57:47.516Z,2.08
2022-08-04T21:00:30.050Z,2.78
2022-08-04T21:03:00.625Z,2.40
2022-08-04T21:05:29.137Z,2.60
2022-08-04T21:07:59.154Z,2.42
2022-08-04T21:10:27.103Z,2.40
2022-08-04T21:12:55.122Z,2.78
2022-08-04T21:15:57.777Z,2.83
2022-08-04T21:18:14.164Z,2.45
2022-08-04T21:20:43.376Z,2.50
2022-08-04T21:23:11.119Z,2.87
2022-08-04T21:25:42.794Z,2.72
2022-08-04T21:28:12.328Z,2.97
2022-08-04T21:30:52.603Z,2.75
2022-08-04T21:35:54.583Z,2.80
2022-08-04T21:38:28.077Z,2.70
2022-08-04T21:40:57.829Z,3.28
2022-08-04T21:43:28.458Z,3.17
2022-08-04T21:45:56.971Z,2.67
2022-08-04T21:48:32.312Z,2.72
2022-08-04T21:51:57.231Z,2.55
2022-08-04T21:54:06.516Z,2.90
2022-08-04T21:56:35.055Z,2.55
2022-08-04T21:59:08.795Z,3.00
2022-08-04T22:01:51.665Z,2.90
2022-08-04T22:04:20.139Z,3.22
2022-08-04T22:06:51.780Z,2.97
2022-08-04T22:09:22.066Z,3.28
2022-08-04T22:11:50.992Z,2.92
2022-08-04T22:14:27.514Z,2.72
2022-08-04T22:17:02.189Z,2.62
2022-08-04T22:19:50.105Z,3.45
2022-08-04T22:22:25.908Z,2.75
2022-08-04T22:24:58.996Z,2.72
2022-08-04T22:27:47.249Z,3.25
2022-08-04T22:30:17.417Z,2.78
2022-08-04T22:32:47.196Z,2.67
2022-08-04T22:35:44.371Z,3.00
2022-08-04T22:38:06.056Z,2.70
2022-08-04T22:40:41.061Z,2.90
2022-08-04T22:45:55.781Z,3.45
2022-08-04T22:48:23.463Z,2.53
2022-08-04T22:50:54.852Z,2.87
2022-08-04T22:53:22.236Z,2.85
2022-08-04T22:56:07.512Z,3.22
2022-08-04T22:58:40.251Z,3.00
2022-08-04T23:01:09.278Z,3.10
2022-08-04T23:03:38.482Z,3.53
2022-08-04T23:06:10.674Z,3.10
2022-08-04T23:08:43.106Z,2.70
2022-08-04T23:11:14.754Z,3.55
2022-08-04T23:13:42.556Z,2.83
2022-08-04T23:16:10.610Z,2.55
2022-08-04T23:18:41.837Z,2.72
2022-08-04T23:21:10.978Z,2.87
2022-08-04T23:23:47.794Z,3.10
2022-08-04T23:26:27.331Z,2.90
2022-08-04T23:28:56.390Z,2.80
2022-08-04T23:31:24.349Z,3.25
2022-08-04T23:33:52.584Z,3.08
2022-08-04T23:36:26.462Z,3.12
2022-08-04T23:39:04.021Z,3.10
2022-08-04T23:41:53.432Z,3.20
2022-08-04T23:44:24.675Z,2.83
2022-08-04T23:47:03.838Z,3.10
2022-08-04T23:49:43.865Z,2.67
2022-08-04T23:52:27.558Z,2.53
2022-08-04T23:54:59.241Z,2.75
2022-08-04T23:57:31.040Z,2.85
